sensor_id;sensor_type;location;lat;lon;timestamp;P1;durP1;ratioP1;P2;durP2;ratioP2
41921;SDS011;27609;51.002;5.354;2023-08-06T00:00:24;1.60;;;1.23;;
41921;SDS011;27609;51.002;5.354;2023-08-06T00:02:50;3.72;;;1.63;;
41921;SDS011;27609;51.002;5.354;2023-08-06T00:05:16;4.40;;;1.35;;
41921;SDS011;27609;51.002;5.354;2023-08-06T00:07:49;2.38;;;1.40;;
41921;SDS011;27609;51.002;5.354;2023-08-06T00:10:15;3.70;;;1.52;;
41921;SDS011;27609;51.002;5.354;2023-08-06T00:12:42;6.05;;;2.25;;
41921;SDS011;27609;51.002;5.354;2023-08-06T00:15:08;5.13;;;1.38;;
41921;SDS011;27609;51.002;5.354;2023-08-06T00:17:35;3.13;;;1.40;;
41921;SDS011;27609;51.002;5.354;2023-08-06T00:20:01;3.85;;;1.63;;
41921;SDS011;27609;51.002;5.354;2023-08-06T00:24:57;3.72;;;1.33;;
41921;SDS011;27609;51.002;5.354;2023-08-06T00:27:23;6.03;;;1.50;;
41921;SDS011;27609;51.002;5.354;2023-08-06T00:29:48;4.45;;;1.23;;
41921;SDS011;27609;51.002;5.354;2023-08-06T00:32:14;3.90;;;1.98;;
41921;SDS011;27609;51.002;5.354;2023-08-06T00:34:40;3.75;;;1.95;;
41921;SDS011;27609;51.002;5.354;2023-08-06T00:37:06;1.85;;;1.38;;
41921;SDS011;27609;51.002;5.354;2023-08-06T00:39:31;4.00;;;1.52;;
41921;SDS011;27609;51.002;5.354;2023-08-06T00:41:57;3.78;;;1.13;;
41921;SDS011;27609;51.002;5.354;2023-08-06T00:44:23;4.93;;;1.42;;
41921;SDS011;27609;51.002;5.354;2023-08-06T00:46:49;5.03;;;1.20;;
41921;SDS011;27609;51.002;5.354;2023-08-06T00:49:15;3.78;;;1.45;;
41921;SDS011;27609;51.002;5.354;2023-08-06T00:51:40;2.35;;;1.23;;
41921;SDS011;27609;51.002;5.354;2023-08-06T00:54:07;3.97;;;1.40;;
41921;SDS011;27609;51.002;5.354;2023-08-06T00:56:34;4.03;;;1.92;;
41921;SDS011;27609;51.002;5.354;2023-08-06T00:59:02;6.63;;;1.40;;
41921;SDS011;27609;51.002;5.354;2023-08-06T01:01:29;1.85;;;1.33;;
41921;SDS011;27609;51.002;5.354;2023-08-06T01:03:55;4.47;;;1.27;;
41921;SDS011;27609;51.002;5.354;2023-08-06T01:06:30;5.97;;;1.67;;
41921;SDS011;27609;51.002;5.354;2023-08-06T01:09:27;3.60;;;1.20;;
41921;SDS011;27609;51.002;5.354;2023-08-06T01:12:06;1.92;;;1.02;;
41921;SDS011;27609;51.002;5.354;2023-08-06T01:14:56;3.78;;;1.38;;
41921;SDS011;27609;51.002;5.354;2023-08-06T01:17:24;2.25;;;1.10;;
41921;SDS011;27609;51.002;5.354;2023-08-06T01:19:51;1.50;;;0.93;;
41921;SDS011;27609;51.002;5.354;2023-08-06T01:22:17;1.75;;;1.00;;
41921;SDS011;27609;51.002;5.354;2023-08-06T01:24:44;5.63;;;1.70;;
41921;SDS011;27609;51.002;5.354;2023-08-06T01:27:43;2.17;;;1.05;;
41921;SDS011;27609;51.002;5.354;2023-08-06T01:32:37;3.53;;;1.08;;
41921;SDS011;27609;51.002;5.354;2023-08-06T01:35:07;3.80;;;1.27;;
41921;SDS011;27609;51.002;5.354;2023-08-06T01:37:34;4.70;;;1.25;;
41921;SDS011;27609;51.002;5.354;2023-08-06T01:40:01;2.60;;;1.17;;
41921;SDS011;27609;51.002;5.354;2023-08-06T01:42:30;4.00;;;1.15;;
41921;SDS011;27609;51.002;5.354;2023-08-06T01:44:56;2.88;;;1.30;;
41921;SDS011;27609;51.002;5.354;2023-08-06T01:47:21;4.75;;;1.38;;
41921;SDS011;27609;51.002;5.354;2023-08-06T01:49:47;3.28;;;1.20;;
41921;SDS011;27609;51.002;5.354;2023-08-06T01:52:13;3.58;;;1.33;;
41921;SDS011;27609;51.002;5.354;2023-08-06T01:54:38;1.95;;;0.93;;
41921;SDS011;27609;51.002;5.354;2023-08-06T01:57:04;1.45;;;1.20;;
41921;SDS011;27609;51.002;5.354;2023-08-06T01:59:30;1.80;;;1.33;;
41921;SDS011;27609;51.002;5.354;2023-08-06T02:01:55;4.00;;;1.30;;
41921;SDS011;27609;51.002;5.354;2023-08-06T02:04:21;2.30;;;1.00;;
41921;SDS011;27609;51.002;5.354;2023-08-06T02:06:47;4.30;;;1.60;;
41921;SDS011;27609;51.002;5.354;2023-08-06T02:09:12;5.85;;;1.80;;
41921;SDS011;27609;51.002;5.354;2023-08-06T02:11:38;4.57;;;1.20;;
41921;SDS011;27609;51.002;5.354;2023-08-06T02:14:04;1.85;;;1.55;;
41921;SDS011;27609;51.002;5.354;2023-08-06T02:16:29;7.97;;;1.83;;
41921;SDS011;27609;51.002;5.354;2023-08-06T02:18:55;5.70;;;1.40;;
41921;SDS011;27609;51.002;5.354;2023-08-06T02:21:20;4.50;;;1.70;;
41921;SDS011;27609;51.002;5.354;2023-08-06T02:23:46;3.05;;;1.40;;
41921;SDS011;27609;51.002;5.354;2023-08-06T02:26:12;4.68;;;1.40;;
41921;SDS011;27609;51.002;5.354;2023-08-06T02:28:37;4.88;;;1.42;;
41921;SDS011;27609;51.002;5.354;2023-08-06T02:31:03;2.92;;;1.52;;
41921;SDS011;27609;51.002;5.354;2023-08-06T02:33:29;1.73;;;1.27;;
41921;SDS011;27609;51.002;5.354;2023-08-06T02:36:01;2.42;;;1.67;;
41921;SDS011;27609;51.002;5.354;2023-08-06T02:38:28;2.63;;;1.48;;
41921;SDS011;27609;51.002;5.354;2023-08-06T02:40:54;3.88;;;1.88;;
41921;SDS011;27609;51.002;5.354;2023-08-06T02:43:20;7.40;;;1.40;;
41921;SDS011;27609;51.002;5.354;2023-08-06T02:45:45;5.20;;;1.10;;
41921;SDS011;27609;51.002;5.354;2023-08-06T02:48:11;5.45;;;1.50;;
41921;SDS011;27609;51.002;5.354;2023-08-06T02:50:37;1.45;;;0.95;;
41921;SDS011;27609;51.002;5.354;2023-08-06T02:53:04;3.67;;;1.17;;
41921;SDS011;27609;51.002;5.354;2023-08-06T02:55:30;6.82;;;2.28;;
41921;SDS011;27609;51.002;5.354;2023-08-06T02:57:56;5.03;;;1.60;;
41921;SDS011;27609;51.002;5.354;2023-08-06T03:00:22;3.28;;;1.40;;
41921;SDS011;27609;51.002;5.354;2023-08-06T03:02:47;1.40;;;1.23;;
41921;SDS011;27609;51.002;5.354;2023-08-06T03:05:13;2.75;;;1.10;;
41921;SDS011;27609;51.002;5.354;2023-08-06T03:07:38;1.55;;;1.33;;
41921;SDS011;27609;51.002;5.354;2023-08-06T03:10:04;3.95;;;1.98;;
41921;SDS011;27609;51.002;5.354;2023-08-06T03:12:30;1.33;;;1.20;;
41921;SDS011;27609;51.002;5.354;2023-08-06T03:14:56;1.48;;;1.33;;
41921;SDS011;27609;51.002;5.354;2023-08-06T03:17:21;6.63;;;1.98;;
41921;SDS011;27609;51.002;5.354;2023-08-06T03:19:47;5.25;;;1.58;;
41921;SDS011;27609;51.002;5.354;2023-08-06T03:22:13;3.97;;;2.38;;
41921;SDS011;27609;51.002;5.354;2023-08-06T03:24:38;4.57;;;1.63;;
41921;SDS011;27609;51.002;5.354;2023-08-06T03:27:04;1.50;;;1.38;;
41921;SDS011;27609;51.002;5.354;2023-08-06T03:29:30;3.67;;;1.23;;
41921;SDS011;27609;51.002;5.354;2023-08-06T03:31:56;5.45;;;1.52;;
41921;SDS011;27609;51.002;5.354;2023-08-06T03:34:21;4.00;;;1.58;;
41921;SDS011;27609;51.002;5.354;2023-08-06T03:36:47;4.53;;;1.80;;
41921;SDS011;27609;51.002;5.354;2023-08-06T03:39:12;2.80;;;1.42;;
41921;SDS011;27609;51.002;5.354;2023-08-06T03:41:39;1.38;;;1.27;;
41921;SDS011;27609;51.002;5.354;2023-08-06T03:44:05;4.63;;;2.00;;
41921;SDS011;27609;51.002;5.354;2023-08-06T03:46:31;8.93;;;2.80;;
41921;SDS011;27609;51.002;5.354;2023-08-06T03:48:59;2.65;;;1.80;;
41921;SDS011;27609;51.002;5.354;2023-08-06T03:51:25;6.85;;;1.92;;
41921;SDS011;27609;51.002;5.354;2023-08-06T03:53:51;6.25;;;1.70;;
41921;SDS011;27609;51.002;5.354;2023-08-06T03:56:17;5.10;;;2.05;;
41921;SDS011;27609;51.002;5.354;2023-08-06T03:58:42;2.13;;;1.50;;
41921;SDS011;27609;51.002;5.354;2023-08-06T04:01:08;3.58;;;1.40;;
41921;SDS011;27609;51.002;5.354;2023-08-06T04:03:33;6.22;;;1.98;;
41921;SDS011;27609;51.002;5.354;2023-08-06T04:05:59;5.45;;;1.88;;
41921;SDS011;27609;51.002;5.354;2023-08-06T04:08:27;10.18;;;1.83;;
41921;SDS011;27609;51.002;5.354;2023-08-06T04:10:53;9.68;;;2.25;;
41921;SDS011;27609;51.002;5.354;2023-08-06T04:13:19;2.92;;;2.15;;
41921;SDS011;27609;51.002;5.354;2023-08-06T04:15:45;2.90;;;1.92;;
41921;SDS011;27609;51.002;5.354;2023-08-06T04:18:12;5.07;;;2.22;;
41921;SDS011;27609;51.002;5.354;2023-08-06T04:20:44;4.38;;;2.17;;
41921;SDS011;27609;51.002;5.354;2023-08-06T04:23:11;8.13;;;2.17;;
41921;SDS011;27609;51.002;5.354;2023-08-06T04:25:37;9.35;;;2.78;;
41921;SDS011;27609;51.002;5.354;2023-08-06T04:28:02;5.15;;;2.67;;
41921;SDS011;27609;51.002;5.354;2023-08-06T04:30:28;7.45;;;2.72;;
41921;SDS011;27609;51.002;5.354;2023-08-06T04:32:56;7.00;;;2.55;;
41921;SDS011;27609;51.002;5.354;2023-08-06T04:35:22;3.60;;;2.92;;
41921;SDS011;27609;51.002;5.354;2023-08-06T04:37:48;6.05;;;2.85;;
41921;SDS011;27609;51.002;5.354;2023-08-06T04:40:14;4.00;;;2.80;;
41921;SDS011;27609;51.002;5.354;2023-08-06T04:42:39;8.40;;;2.90;;
41921;SDS011;27609;51.002;5.354;2023-08-06T04:45:05;5.45;;;3.20;;
41921;SDS011;27609;51.002;5.354;2023-08-06T04:47:31;6.60;;;3.38;;
41921;SDS011;27609;51.002;5.354;2023-08-06T04:49:57;3.97;;;2.60;;
41921;SDS011;27609;51.002;5.354;2023-08-06T04:52:23;4.22;;;3.05;;
41921;SDS011;27609;51.002;5.354;2023-08-06T04:54:52;6.50;;;3.25;;
41921;SDS011;27609;51.002;5.354;2023-08-06T04:57:18;5.55;;;3.28;;
41921;SDS011;27609;51.002;5.354;2023-08-06T04:59:43;4.82;;;3.25;;
41921;SDS011;27609;51.002;5.354;2023-08-06T05:02:09;4.57;;;2.80;;
41921;SDS011;27609;51.002;5.354;2023-08-06T05:04:34;4.07;;;2.45;;
41921;SDS011;27609;51.002;5.354;2023-08-06T05:07:00;6.75;;;3.30;;
41921;SDS011;27609;51.002;5.354;2023-08-06T05:09:26;7.78;;;2.70;;
41921;SDS011;27609;51.002;5.354;2023-08-06T05:11:51;8.02;;;3.08;;
41921;SDS011;27609;51.002;5.354;2023-08-06T05:14:17;3.30;;;2.72;;
41921;SDS011;27609;51.002;5.354;2023-08-06T05:16:43;3.70;;;2.55;;
41921;SDS011;27609;51.002;5.354;2023-08-06T05:19:08;5.22;;;3.15;;
41921;SDS011;27609;51.002;5.354;2023-08-06T05:21:34;6.75;;;3.20;;
41921;SDS011;27609;51.002;5.354;2023-08-06T05:23:59;9.65;;;3.33;;
41921;SDS011;27609;51.002;5.354;2023-08-06T05:26:25;4.95;;;3.20;;
41921;SDS011;27609;51.002;5.354;2023-08-06T05:28:51;3.80;;;2.80;;
41921;SDS011;27609;51.002;5.354;2023-08-06T05:31:16;10.77;;;3.45;;
41921;SDS011;27609;51.002;5.354;2023-08-06T05:33:42;7.00;;;3.20;;
41921;SDS011;27609;51.002;5.354;2023-08-06T05:36:07;6.10;;;2.92;;
41921;SDS011;27609;51.002;5.354;2023-08-06T05:38:33;4.30;;;2.60;;
41921;SDS011;27609;51.002;5.354;2023-08-06T05:40:59;3.60;;;2.78;;
41921;SDS011;27609;51.002;5.354;2023-08-06T05:43:24;7.97;;;2.75;;
41921;SDS011;27609;51.002;5.354;2023-08-06T05:45:50;4.57;;;1.85;;
41921;SDS011;27609;51.002;5.354;2023-08-06T05:48:16;3.55;;;1.50;;
41921;SDS011;27609;51.002;5.354;2023-08-06T05:50:41;1.42;;;1.27;;
41921;SDS011;27609;51.002;5.354;2023-08-06T05:53:07;2.53;;;1.35;;
41921;SDS011;27609;51.002;5.354;2023-08-06T05:55:33;4.28;;;1.90;;
41921;SDS011;27609;51.002;5.354;2023-08-06T05:57:59;2.40;;;1.85;;
41921;SDS011;27609;51.002;5.354;2023-08-06T06:00:25;5.03;;;2.67;;
41921;SDS011;27609;51.002;5.354;2023-08-06T06:02:50;6.28;;;2.95;;
41921;SDS011;27609;51.002;5.354;2023-08-06T06:05:16;4.38;;;3.40;;
41921;SDS011;27609;51.002;5.354;2023-08-06T06:07:42;3.80;;;3.35;;
41921;SDS011;27609;51.002;5.354;2023-08-06T06:10:07;5.55;;;3.17;;
41921;SDS011;27609;51.002;5.354;2023-08-06T06:12:33;9.10;;;3.40;;
41921;SDS011;27609;51.002;5.354;2023-08-06T06:14:59;4.05;;;3.35;;
41921;SDS011;27609;51.002;5.354;2023-08-06T06:17:26;5.47;;;3.75;;
41921;SDS011;27609;51.002;5.354;2023-08-06T06:19:54;6.53;;;3.00;;
41921;SDS011;27609;51.002;5.354;2023-08-06T06:22:20;3.20;;;2.85;;
41921;SDS011;27609;51.002;5.354;2023-08-06T06:24:45;1.52;;;1.40;;
41921;SDS011;27609;51.002;5.354;2023-08-06T06:27:11;1.90;;;1.02;;
41921;SDS011;27609;51.002;5.354;2023-08-06T06:29:37;0.82;;;0.80;;
41921;SDS011;27609;51.002;5.354;2023-08-06T06:32:04;0.75;;;0.70;;
41921;SDS011;27609;51.002;5.354;2023-08-06T06:34:29;3.67;;;1.38;;
41921;SDS011;27609;51.002;5.354;2023-08-06T06:36:55;3.72;;;1.20;;
41921;SDS011;27609;51.002;5.354;2023-08-06T06:39:21;3.55;;;1.77;;
41921;SDS011;27609;51.002;5.354;2023-08-06T06:41:47;4.35;;;2.13;;
41921;SDS011;27609;51.002;5.354;2023-08-06T06:44:13;2.75;;;2.10;;
41921;SDS011;27609;51.002;5.354;2023-08-06T06:46:39;4.70;;;2.45;;
41921;SDS011;27609;51.002;5.354;2023-08-06T06:49:05;3.33;;;2.58;;
41921;SDS011;27609;51.002;5.354;2023-08-06T06:51:31;3.75;;;2.80;;
41921;SDS011;27609;51.002;5.354;2023-08-06T06:53:57;4.28;;;3.13;;
41921;SDS011;27609;51.002;5.354;2023-08-06T06:56:22;4.28;;;3.08;;
41921;SDS011;27609;51.002;5.354;2023-08-06T06:58:48;4.07;;;3.10;;
41921;SDS011;27609;51.002;5.354;2023-08-06T07:01:14;5.65;;;3.65;;
41921;SDS011;27609;51.002;5.354;2023-08-06T07:03:39;4.82;;;3.80;;
41921;SDS011;27609;51.002;5.354;2023-08-06T07:06:05;3.95;;;3.55;;
41921;SDS011;27609;51.002;5.354;2023-08-06T07:08:31;5.72;;;4.18;;
41921;SDS011;27609;51.002;5.354;2023-08-06T07:11:01;5.85;;;4.78;;
41921;SDS011;27609;51.002;5.354;2023-08-06T07:13:28;8.15;;;5.07;;
41921;SDS011;27609;51.002;5.354;2023-08-06T07:15:54;5.68;;;4.32;;
41921;SDS011;27609;51.002;5.354;2023-08-06T07:18:20;11.00;;;4.25;;
41921;SDS011;27609;51.002;5.354;2023-08-06T07:20:52;5.88;;;4.15;;
41921;SDS011;27609;51.002;5.354;2023-08-06T07:23:20;4.93;;;4.47;;
41921;SDS011;27609;51.002;5.354;2023-08-06T07:25:48;7.30;;;4.65;;
41921;SDS011;27609;51.002;5.354;2023-08-06T07:28:14;8.00;;;4.38;;
41921;SDS011;27609;51.002;5.354;2023-08-06T07:30:40;7.43;;;4.70;;
41921;SDS011;27609;51.002;5.354;2023-08-06T07:33:07;10.13;;;4.20;;
41921;SDS011;27609;51.002;5.354;2023-08-06T07:35:33;7.22;;;4.07;;
41921;SDS011;27609;51.002;5.354;2023-08-06T07:37:59;5.10;;;3.38;;
41921;SDS011;27609;51.002;5.354;2023-08-06T07:40:25;5.45;;;2.95;;
41921;SDS011;27609;51.002;5.354;2023-08-06T07:42:50;6.63;;;3.00;;
41921;SDS011;27609;51.002;5.354;2023-08-06T07:45:16;6.32;;;2.63;;
41921;SDS011;27609;51.002;5.354;2023-08-06T07:47:42;6.57;;;2.60;;
41921;SDS011;27609;51.002;5.354;2023-08-06T07:50:08;5.22;;;2.20;;
41921;SDS011;27609;51.002;5.354;2023-08-06T07:52:34;8.40;;;2.38;;
41921;SDS011;27609;51.002;5.354;2023-08-06T07:55:00;3.78;;;2.22;;
41921;SDS011;27609;51.002;5.354;2023-08-06T07:57:29;4.18;;;2.15;;
41921;SDS011;27609;51.002;5.354;2023-08-06T07:59:55;4.43;;;2.00;;
41921;SDS011;27609;51.002;5.354;2023-08-06T08:02:21;10.95;;;2.83;;
41921;SDS011;27609;51.002;5.354;2023-08-06T08:04:47;4.72;;;1.95;;
41921;SDS011;27609;51.002;5.354;2023-08-06T08:07:13;7.25;;;2.25;;
41921;SDS011;27609;51.002;5.354;2023-08-06T08:09:39;7.38;;;2.70;;
41921;SDS011;27609;51.002;5.354;2023-08-06T08:12:05;5.93;;;2.63;;
41921;SDS011;27609;51.002;5.354;2023-08-06T08:14:31;8.45;;;2.53;;
41921;SDS011;27609;51.002;5.354;2023-08-06T08:17:03;8.57;;;2.78;;
41921;SDS011;27609;51.002;5.354;2023-08-06T08:19:30;6.45;;;2.50;;
41921;SDS011;27609;51.002;5.354;2023-08-06T08:21:56;3.53;;;2.50;;
41921;SDS011;27609;51.002;5.354;2023-08-06T08:24:22;10.38;;;2.47;;
41921;SDS011;27609;51.002;5.354;2023-08-06T08:26:52;6.85;;;2.05;;
41921;SDS011;27609;51.002;5.354;2023-08-06T08:29:21;7.20;;;2.70;;
41921;SDS011;27609;51.002;5.354;2023-08-06T08:31:47;4.55;;;2.28;;
41921;SDS011;27609;51.002;5.354;2023-08-06T08:34:18;5.53;;;2.20;;
41921;SDS011;27609;51.002;5.354;2023-08-06T08:36:44;6.90;;;2.28;;
41921;SDS011;27609;51.002;5.354;2023-08-06T08:39:12;8.73;;;2.15;;
41921;SDS011;27609;51.002;5.354;2023-08-06T08:41:38;8.30;;;2.83;;
41921;SDS011;27609;51.002;5.354;2023-08-06T08:44:08;6.57;;;2.17;;
41921;SDS011;27609;51.002;5.354;2023-08-06T08:46:35;7.13;;;2.47;;
41921;SDS011;27609;51.002;5.354;2023-08-06T08:49:03;5.68;;;2.40;;
41921;SDS011;27609;51.002;5.354;2023-08-06T08:51:29;9.32;;;2.97;;
41921;SDS011;27609;51.002;5.354;2023-08-06T08:53:55;10.60;;;2.28;;
41921;SDS011;27609;51.002;5.354;2023-08-06T08:56:22;6.07;;;2.17;;
41921;SDS011;27609;51.002;5.354;2023-08-06T08:58:48;9.85;;;2.15;;
41921;SDS011;27609;51.002;5.354;2023-08-06T09:01:14;6.57;;;2.70;;
41921;SDS011;27609;51.002;5.354;2023-08-06T09:03:41;5.30;;;1.73;;
41921;SDS011;27609;51.002;5.354;2023-08-06T09:06:09;8.77;;;2.20;;
41921;SDS011;27609;51.002;5.354;2023-08-06T09:08:38;6.38;;;1.70;;
41921;SDS011;27609;51.002;5.354;2023-08-06T09:11:08;5.18;;;1.52;;
41921;SDS011;27609;51.002;5.354;2023-08-06T09:13:37;6.68;;;2.28;;
41921;SDS011;27609;51.002;5.354;2023-08-06T09:16:04;5.72;;;1.75;;
41921;SDS011;27609;51.002;5.354;2023-08-06T09:18:30;5.13;;;2.00;;
41921;SDS011;27609;51.002;5.354;2023-08-06T09:20:56;8.13;;;2.10;;
41921;SDS011;27609;51.002;5.354;2023-08-06T09:23:32;7.00;;;1.85;;
41921;SDS011;27609;51.002;5.354;2023-08-06T09:25:58;9.70;;;2.63;;
41921;SDS011;27609;51.002;5.354;2023-08-06T09:28:25;5.47;;;2.38;;
41921;SDS011;27609;51.002;5.354;2023-08-06T09:31:03;11.00;;;2.25;;
41921;SDS011;27609;51.002;5.354;2023-08-06T09:33:29;10.63;;;2.13;;
41921;SDS011;27609;51.002;5.354;2023-08-06T09:35:54;5.07;;;2.05;;
41921;SDS011;27609;51.002;5.354;2023-08-06T09:38:20;7.50;;;1.50;;
41921;SDS011;27609;51.002;5.354;2023-08-06T09:40:46;8.82;;;1.88;;
41921;SDS011;27609;51.002;5.354;2023-08-06T09:43:12;7.97;;;1.50;;
41921;SDS011;27609;51.002;5.354;2023-08-06T09:45:38;10.68;;;2.45;;
41921;SDS011;27609;51.002;5.354;2023-08-06T09:48:05;10.35;;;2.35;;
41921;SDS011;27609;51.002;5.354;2023-08-06T09:50:33;4.88;;;2.03;;
41921;SDS011;27609;51.002;5.354;2023-08-06T09:53:06;8.65;;;2.00;;
41921;SDS011;27609;51.002;5.354;2023-08-06T09:55:33;7.07;;;2.20;;
41921;SDS011;27609;51.002;5.354;2023-08-06T09:57:59;5.15;;;1.30;;
41921;SDS011;27609;51.002;5.354;2023-08-06T10:00:25;5.40;;;1.67;;
41921;SDS011;27609;51.002;5.354;2023-08-06T10:02:53;8.27;;;1.45;;
41921;SDS011;27609;51.002;5.354;2023-08-06T10:05:22;7.72;;;2.08;;
41921;SDS011;27609;51.002;5.354;2023-08-06T10:07:49;7.75;;;1.55;;
41921;SDS011;27609;51.002;5.354;2023-08-06T10:10:18;5.90;;;1.60;;
41921;SDS011;27609;51.002;5.354;2023-08-06T10:12:47;3.70;;;1.35;;
41921;SDS011;27609;51.002;5.354;2023-08-06T10:15:16;6.63;;;1.27;;
41921;SDS011;27609;51.002;5.354;2023-08-06T10:17:45;3.35;;;1.38;;
41921;SDS011;27609;51.002;5.354;2023-08-06T10:20:14;6.45;;;1.67;;
41921;SDS011;27609;51.002;5.354;2023-08-06T10:22:43;7.88;;;1.95;;
41921;SDS011;27609;51.002;5.354;2023-08-06T10:25:10;4.63;;;1.45;;
41921;SDS011;27609;51.002;5.354;2023-08-06T10:27:39;7.07;;;1.48;;
41921;SDS011;27609;51.002;5.354;2023-08-06T10:30:27;8.13;;;1.90;;
41921;SDS011;27609;51.002;5.354;2023-08-06T10:32:58;6.80;;;1.50;;
41921;SDS011;27609;51.002;5.354;2023-08-06T10:38:03;12.32;;;1.60;;
41921;SDS011;27609;51.002;5.354;2023-08-06T10:42:58;4.13;;;1.45;;
41921;SDS011;27609;51.002;5.354;2023-08-06T10:45:25;1.67;;;1.10;;
41921;SDS011;27609;51.002;5.354;2023-08-06T10:47:54;3.75;;;1.17;;
41921;SDS011;27609;51.002;5.354;2023-08-06T10:50:21;1.98;;;0.88;;
41921;SDS011;27609;51.002;5.354;2023-08-06T10:52:47;3.45;;;1.48;;
41921;SDS011;27609;51.002;5.354;2023-08-06T10:55:13;4.38;;;1.08;;
41921;SDS011;27609;51.002;5.354;2023-08-06T10:57:46;4.50;;;2.08;;
41921;SDS011;27609;51.002;5.354;2023-08-06T11:00:12;6.07;;;1.42;;
41921;SDS011;27609;51.002;5.354;2023-08-06T11:02:39;3.60;;;1.10;;
41921;SDS011;27609;51.002;5.354;2023-08-06T11:05:08;2.13;;;0.90;;
41921;SDS011;27609;51.002;5.354;2023-08-06T11:07:35;4.43;;;1.00;;
41921;SDS011;27609;51.002;5.354;2023-08-06T11:10:04;3.90;;;0.88;;
41921;SDS011;27609;51.002;5.354;2023-08-06T11:12:32;7.32;;;1.42;;
41921;SDS011;27609;51.002;5.354;2023-08-06T11:14:58;1.00;;;0.90;;
41921;SDS011;27609;51.002;5.354;2023-08-06T11:17:24;3.42;;;1.00;;
41921;SDS011;27609;51.002;5.354;2023-08-06T11:19:52;5.03;;;1.08;;
41921;SDS011;27609;51.002;5.354;2023-08-06T11:22:19;4.25;;;1.00;;
41921;SDS011;27609;51.002;5.354;2023-08-06T11:24:45;8.57;;;2.17;;
41921;SDS011;27609;51.002;5.354;2023-08-06T11:27:15;4.93;;;1.17;;
41921;SDS011;27609;51.002;5.354;2023-08-06T11:29:42;5.10;;;1.58;;
41921;SDS011;27609;51.002;5.354;2023-08-06T11:32:08;6.45;;;1.90;;
41921;SDS011;27609;51.002;5.354;2023-08-06T11:34:36;2.45;;;1.10;;
41921;SDS011;27609;51.002;5.354;2023-08-06T11:37:05;4.13;;;0.82;;
41921;SDS011;27609;51.002;5.354;2023-08-06T11:39:35;1.70;;;1.07;;
41921;SDS011;27609;51.002;5.354;2023-08-06T11:42:05;1.95;;;1.30;;
41921;SDS011;27609;51.002;5.354;2023-08-06T11:44:32;6.13;;;1.60;;
41921;SDS011;27609;51.002;5.354;2023-08-06T11:47:00;8.27;;;1.40;;
41921;SDS011;27609;51.002;5.354;2023-08-06T11:54:35;5.38;;;1.50;;
41921;SDS011;27609;51.002;5.354;2023-08-06T11:57:07;6.05;;;1.15;;
41921;SDS011;27609;51.002;5.354;2023-08-06T11:59:34;7.57;;;1.40;;
41921;SDS011;27609;51.002;5.354;2023-08-06T12:02:01;5.03;;;1.20;;
41921;SDS011;27609;51.002;5.354;2023-08-06T12:04:27;5.63;;;1.63;;
41921;SDS011;27609;51.002;5.354;2023-08-06T12:06:54;7.10;;;1.50;;
41921;SDS011;27609;51.002;5.354;2023-08-06T12:09:19;3.50;;;0.85;;
41921;SDS011;27609;51.002;5.354;2023-08-06T12:11:45;6.85;;;1.40;;
41921;SDS011;27609;51.002;5.354;2023-08-06T12:14:11;11.43;;;1.50;;
41921;SDS011;27609;51.002;5.354;2023-08-06T12:16:37;6.03;;;1.27;;
41921;SDS011;27609;51.002;5.354;2023-08-06T12:19:02;2.55;;;0.68;;
41921;SDS011;27609;51.002;5.354;2023-08-06T12:21:29;3.60;;;0.90;;
41921;SDS011;27609;51.002;5.354;2023-08-06T12:23:55;2.90;;;0.90;;
41921;SDS011;27609;51.002;5.354;2023-08-06T12:26:20;4.90;;;0.88;;
41921;SDS011;27609;51.002;5.354;2023-08-06T12:28:46;3.35;;;0.68;;
41921;SDS011;27609;51.002;5.354;2023-08-06T12:31:11;1.85;;;0.63;;
41921;SDS011;27609;51.002;5.354;2023-08-06T12:33:37;3.95;;;0.80;;
41921;SDS011;27609;51.002;5.354;2023-08-06T12:36:03;1.90;;;0.75;;
41921;SDS011;27609;51.002;5.354;2023-08-06T12:38:29;2.20;;;1.08;;
41921;SDS011;27609;51.002;5.354;2023-08-06T12:40:58;2.17;;;0.87;;
41921;SDS011;27609;51.002;5.354;2023-08-06T12:43:24;3.17;;;0.98;;
41921;SDS011;27609;51.002;5.354;2023-08-06T12:45:50;3.78;;;0.93;;
41921;SDS011;27609;51.002;5.354;2023-08-06T12:48:15;6.60;;;1.73;;
41921;SDS011;27609;51.002;5.354;2023-08-06T12:50:41;4.57;;;1.10;;
41921;SDS011;27609;51.002;5.354;2023-08-06T12:53:07;2.55;;;1.23;;
41921;SDS011;27609;51.002;5.354;2023-08-06T12:55:32;8.18;;;1.02;;
41921;SDS011;27609;51.002;5.354;2023-08-06T12:57:58;1.50;;;0.73;;
41921;SDS011;27609;51.002;5.354;2023-08-06T13:00:24;4.18;;;1.10;;
41921;SDS011;27609;51.002;5.354;2023-08-06T13:02:52;5.22;;;1.13;;
41921;SDS011;27609;51.002;5.354;2023-08-06T13:05:18;5.65;;;1.67;;
41921;SDS011;27609;51.002;5.354;2023-08-06T13:07:44;7.50;;;1.48;;
41921;SDS011;27609;51.002;5.354;2023-08-06T13:10:10;7.57;;;1.40;;
41921;SDS011;27609;51.002;5.354;2023-08-06T13:12:36;6.63;;;1.10;;
41921;SDS011;27609;51.002;5.354;2023-08-06T13:15:01;4.00;;;1.05;;
41921;SDS011;27609;51.002;5.354;2023-08-06T13:17:27;5.05;;;1.00;;
41921;SDS011;27609;51.002;5.354;2023-08-06T13:19:53;2.60;;;0.80;;
41921;SDS011;27609;51.002;5.354;2023-08-06T13:22:18;3.15;;;1.08;;
41921;SDS011;27609;51.002;5.354;2023-08-06T13:24:44;1.85;;;0.82;;
41921;SDS011;27609;51.002;5.354;2023-08-06T13:27:10;2.65;;;0.57;;
41921;SDS011;27609;51.002;5.354;2023-08-06T13:29:36;2.17;;;0.95;;
41921;SDS011;27609;51.002;5.354;2023-08-06T13:32:01;3.60;;;1.20;;
41921;SDS011;27609;51.002;5.354;2023-08-06T13:34:27;4.05;;;1.10;;
41921;SDS011;27609;51.002;5.354;2023-08-06T13:36:53;2.28;;;0.60;;
41921;SDS011;27609;51.002;5.354;2023-08-06T13:39:18;2.72;;;1.10;;
41921;SDS011;27609;51.002;5.354;2023-08-06T13:41:44;1.80;;;0.80;;
41921;SDS011;27609;51.002;5.354;2023-08-06T13:44:10;2.00;;;0.88;;
41921;SDS011;27609;51.002;5.354;2023-08-06T13:46:36;3.65;;;0.95;;
41921;SDS011;27609;51.002;5.354;2023-08-06T13:49:02;2.50;;;0.68;;
41921;SDS011;27609;51.002;5.354;2023-08-06T13:51:27;5.78;;;1.35;;
41921;SDS011;27609;51.002;5.354;2023-08-06T13:53:53;2.75;;;0.73;;
41921;SDS011;27609;51.002;5.354;2023-08-06T13:56:19;2.42;;;0.77;;
41921;SDS011;27609;51.002;5.354;2023-08-06T13:58:45;1.27;;;0.70;;
41921;SDS011;27609;51.002;5.354;2023-08-06T14:01:11;2.50;;;0.70;;
41921;SDS011;27609;51.002;5.354;2023-08-06T14:03:38;3.38;;;0.93;;
41921;SDS011;27609;51.002;5.354;2023-08-06T14:06:04;3.10;;;0.82;;
41921;SDS011;27609;51.002;5.354;2023-08-06T14:08:29;8.43;;;1.33;;
41921;SDS011;27609;51.002;5.354;2023-08-06T14:10:55;3.28;;;0.80;;
41921;SDS011;27609;51.002;5.354;2023-08-06T14:13:21;3.97;;;1.00;;
41921;SDS011;27609;51.002;5.354;2023-08-06T14:15:47;6.65;;;1.02;;
41921;SDS011;27609;51.002;5.354;2023-08-06T14:18:13;3.75;;;1.00;;
41921;SDS011;27609;51.002;5.354;2023-08-06T14:20:40;4.05;;;1.17;;
41921;SDS011;27609;51.002;5.354;2023-08-06T14:23:06;2.33;;;0.80;;
41921;SDS011;27609;51.002;5.354;2023-08-06T14:25:32;6.00;;;0.93;;
41921;SDS011;27609;51.002;5.354;2023-08-06T14:27:58;1.73;;;0.95;;
41921;SDS011;27609;51.002;5.354;2023-08-06T14:30:23;2.55;;;0.75;;
41921;SDS011;27609;51.002;5.354;2023-08-06T14:32:49;2.58;;;0.50;;
41921;SDS011;27609;51.002;5.354;2023-08-06T14:35:15;0.63;;;0.55;;
41921;SDS011;27609;51.002;5.354;2023-08-06T14:37:40;1.40;;;0.50;;
41921;SDS011;27609;51.002;5.354;2023-08-06T14:40:06;0.98;;;0.55;;
41921;SDS011;27609;51.002;5.354;2023-08-06T14:42:33;1.40;;;0.45;;
41921;SDS011;27609;51.002;5.354;2023-08-06T14:44:58;0.60;;;0.50;;
41921;SDS011;27609;51.002;5.354;2023-08-06T14:47:24;1.55;;;1.38;;
41921;SDS011;27609;51.002;5.354;2023-08-06T14:49:50;0.85;;;0.60;;
41921;SDS011;27609;51.002;5.354;2023-08-06T14:52:16;0.43;;;0.30;;
41921;SDS011;27609;51.002;5.354;2023-08-06T14:54:42;1.08;;;0.40;;
41921;SDS011;27609;51.002;5.354;2023-08-06T14:57:08;1.55;;;0.38;;
41921;SDS011;27609;51.002;5.354;2023-08-06T14:59:34;1.65;;;0.50;;